Albany, OK

1:36 PM CST on December 22, 2014 (GMT -0600)
Duplex, Texas | Change Station
CLOSE
Current Station
Personal Weather Station
Location: Ivanhoe, TX
Elevation: 617 ft
Nearby Weather Stations

Elev 617 ft 33.77 °N, 96.13 °W | Updated 2 seconds ago

Partly Cloudy
Partly Cloudy
62.7 °F
Feels Like 62.7 °F
N
0.0
Wind Variable Wind from WNW
Gusts 0.0 mph

Today
High -- | Low -- °F
--% Chance of Precip.
Yesterday
High -- | Low -- °F
Precip. -- in
7:26 AM 5:20 PM
New Moon, 1% visible
Pressure 29.58 in
Visibility 10.0 miles
Clouds Clear
Dew Point 48 °F
Humidity 59%
Rainfall 0.00 in
Snow Depth Not available.
UV 0.0 out of 12
Pollen 11.20 out of 12
Air Quality Not available.
Flu Activity Not available.
METAR KDUA 221915Z AUTO 31011KT 10SM CLR 16/08 A2958 RMK AO2

More Conditions Fewer Conditions

Pressure 29.58 in
Visibility 10.0 miles
Clouds Clear
Dew Point 48 °F
Humidity 59%
Rainfall 0.00 in
Snow Depth Not available.
UV 0.0 out of 12
Pollen 11.20 out of 12
Air Quality Not available.
Flu Activity Not available.
METAR KDUA 221915Z AUTO 31011KT 10SM CLR 16/08 A2958 RMK AO2

More Conditions Fewer Conditions

10-Day Weather Forecast

Almanac

Astronomy

Dec. 22, 2014 Rise Set
Actual Time
Civil Twilight
Nautical Twilight
Astronomical Twilight
Moon
Length of Visible Light
Length of Day
Tomorrow will be .
, % of the Moon is Illuminated

Today's Extremes

State Highs State Lows

Community

WunderPhotos

Upload Photos

1,779,696 photos uploaded!

WunderBlogs® & News

Nearby

Air Quality

  Air Quality AQ Index Pollutant
Not available.

Snow Depth

Station Depth Elevation

Earthquake Activity

City Distance Mag. Time & Date
Minimum magnitude displayed is 2.5.

Coastal Water Temperatures

Place Temperature

Nearby Weather Stations